sensor_id;sensor_type;location;lat;lon;timestamp;temperature;humidity
9271;DHT22;4673;53.458;9.940;2023-04-03T00:01:10;-0.10;87.90
9271;DHT22;4673;53.458;9.940;2023-04-03T00:03:36;-0.10;87.80
9271;DHT22;4673;53.458;9.940;2023-04-03T00:06:03;-0.10;87.90
9271;DHT22;4673;53.458;9.940;2023-04-03T00:08:29;0.00;87.90
9271;DHT22;4673;53.458;9.940;2023-04-03T00:10:56;0.00;87.60
9271;DHT22;4673;53.458;9.940;2023-04-03T00:13:23;0.10;87.50
9271;DHT22;4673;53.458;9.940;2023-04-03T00:15:49;0.00;87.10
9271;DHT22;4673;53.458;9.940;2023-04-03T00:18:14;0.00;87.10
9271;DHT22;4673;53.458;9.940;2023-04-03T00:20:41;-0.10;87.20
9271;DHT22;4673;53.458;9.940;2023-04-03T00:23:06;-0.10;87.30
9271;DHT22;4673;53.458;9.940;2023-04-03T00:25:32;-0.10;87.50
9271;DHT22;4673;53.458;9.940;2023-04-03T00:27:58;-0.10;87.70
9271;DHT22;4673;53.458;9.940;2023-04-03T00:30:23;-0.10;87.60
9271;DHT22;4673;53.458;9.940;2023-04-03T00:32:50;-0.10;87.60
9271;DHT22;4673;53.458;9.940;2023-04-03T00:35:17;-0.20;87.60
9271;DHT22;4673;53.458;9.940;2023-04-03T00:37:43;-0.20;87.60
9271;DHT22;4673;53.458;9.940;2023-04-03T00:40:10;-0.30;87.50
9271;DHT22;4673;53.458;9.940;2023-04-03T00:42:37;-0.30;87.90
9271;DHT22;4673;53.458;9.940;2023-04-03T00:47:29;-0.30;87.90
9271;DHT22;4673;53.458;9.940;2023-04-03T00:49:56;-0.30;88.00
9271;DHT22;4673;53.458;9.940;2023-04-03T00:52:27;-0.30;88.00
9271;DHT22;4673;53.458;9.940;2023-04-03T00:54:57;-0.40;88.00
9271;DHT22;4673;53.458;9.940;2023-04-03T00:57:24;-0.40;88.10
9271;DHT22;4673;53.458;9.940;2023-04-03T00:59:54;-0.40;88.10
9271;DHT22;4673;53.458;9.940;2023-04-03T01:04:52;-0.40;88.50
9271;DHT22;4673;53.458;9.940;2023-04-03T01:07:22;-0.40;88.50
9271;DHT22;4673;53.458;9.940;2023-04-03T01:09:52;-0.40;88.50
9271;DHT22;4673;53.458;9.940;2023-04-03T01:14:52;-0.50;88.60
9271;DHT22;4673;53.458;9.940;2023-04-03T01:25:29;-0.70;89.10
9271;DHT22;4673;53.458;9.940;2023-04-03T01:27:55;-0.70;89.20
9271;DHT22;4673;53.458;9.940;2023-04-03T01:30:25;-0.70;89.50
9271;DHT22;4673;53.458;9.940;2023-04-03T01:32:52;-0.70;89.50
9271;DHT22;4673;53.458;9.940;2023-04-03T01:35:18;-0.80;89.50
9271;DHT22;4673;53.458;9.940;2023-04-03T01:37:43;-0.70;89.80
9271;DHT22;4673;53.458;9.940;2023-04-03T01:40:09;-0.80;89.70
9271;DHT22;4673;53.458;9.940;2023-04-03T01:42:35;-0.70;89.80
9271;DHT22;4673;53.458;9.940;2023-04-03T01:45:01;-0.80;89.60
9271;DHT22;4673;53.458;9.940;2023-04-03T01:47:26;-0.80;89.70
9271;DHT22;4673;53.458;9.940;2023-04-03T01:49:52;-0.80;89.80
9271;DHT22;4673;53.458;9.940;2023-04-03T01:52:17;-0.70;89.90
9271;DHT22;4673;53.458;9.940;2023-04-03T01:54:43;-0.70;90.00
9271;DHT22;4673;53.458;9.940;2023-04-03T01:57:08;-0.70;89.70
9271;DHT22;4673;53.458;9.940;2023-04-03T01:59:34;-0.70;89.90
9271;DHT22;4673;53.458;9.940;2023-04-03T02:02:00;-0.70;89.60
9271;DHT22;4673;53.458;9.940;2023-04-03T02:04:25;-0.70;89.40
9271;DHT22;4673;53.458;9.940;2023-04-03T02:06:51;-0.80;89.10
9271;DHT22;4673;53.458;9.940;2023-04-03T02:09:17;-0.80;89.20
9271;DHT22;4673;53.458;9.940;2023-04-03T02:11:42;-0.90;89.40
9271;DHT22;4673;53.458;9.940;2023-04-03T02:14:08;-0.90;89.50
9271;DHT22;4673;53.458;9.940;2023-04-03T02:16:34;-0.90;89.50
9271;DHT22;4673;53.458;9.940;2023-04-03T02:18:59;-1.10;89.50
9271;DHT22;4673;53.458;9.940;2023-04-03T02:21:25;-1.10;89.70
9271;DHT22;4673;53.458;9.940;2023-04-03T02:23:50;-1.20;89.90
9271;DHT22;4673;53.458;9.940;2023-04-03T02:26:16;-1.20;90.10
9271;DHT22;4673;53.458;9.940;2023-04-03T02:28:43;-1.20;90.30
9271;DHT22;4673;53.458;9.940;2023-04-03T02:31:09;-1.20;90.60
9271;DHT22;4673;53.458;9.940;2023-04-03T02:33:36;-1.20;90.90
9271;DHT22;4673;53.458;9.940;2023-04-03T02:36:03;-1.20;90.90
9271;DHT22;4673;53.458;9.940;2023-04-03T02:38:29;-1.20;91.10
9271;DHT22;4673;53.458;9.940;2023-04-03T02:41:03;-1.20;91.30
9271;DHT22;4673;53.458;9.940;2023-04-03T02:43:29;-1.10;91.40
9271;DHT22;4673;53.458;9.940;2023-04-03T02:45:54;-1.10;91.40
9271;DHT22;4673;53.458;9.940;2023-04-03T02:48:20;-1.20;91.10
9271;DHT22;4673;53.458;9.940;2023-04-03T02:50:46;-1.20;91.10
9271;DHT22;4673;53.458;9.940;2023-04-03T02:53:11;-1.20;91.40
9271;DHT22;4673;53.458;9.940;2023-04-03T02:55:37;-1.30;91.40
9271;DHT22;4673;53.458;9.940;2023-04-03T02:58:02;-1.30;91.50
9271;DHT22;4673;53.458;9.940;2023-04-03T03:00:29;-1.30;91.60
9271;DHT22;4673;53.458;9.940;2023-04-03T03:02:54;-1.30;91.90
9271;DHT22;4673;53.458;9.940;2023-04-03T03:05:20;-1.40;91.80
9271;DHT22;4673;53.458;9.940;2023-04-03T03:07:47;-1.50;91.60
9271;DHT22;4673;53.458;9.940;2023-04-03T03:10:12;-1.50;91.80
9271;DHT22;4673;53.458;9.940;2023-04-03T03:12:38;-1.50;92.00
9271;DHT22;4673;53.458;9.940;2023-04-03T03:15:04;-1.50;92.20
9271;DHT22;4673;53.458;9.940;2023-04-03T03:17:30;-1.60;92.30
9271;DHT22;4673;53.458;9.940;2023-04-03T03:19:55;-1.60;92.50
9271;DHT22;4673;53.458;9.940;2023-04-03T03:22:21;-1.60;92.70
9271;DHT22;4673;53.458;9.940;2023-04-03T03:24:46;-1.60;92.80
9271;DHT22;4673;53.458;9.940;2023-04-03T03:27:12;-1.70;93.00
9271;DHT22;4673;53.458;9.940;2023-04-03T03:29:38;-1.70;93.30
9271;DHT22;4673;53.458;9.940;2023-04-03T03:32:03;-1.70;93.40
9271;DHT22;4673;53.458;9.940;2023-04-03T03:34:29;-1.70;93.60
9271;DHT22;4673;53.458;9.940;2023-04-03T03:36:55;-1.70;93.70
9271;DHT22;4673;53.458;9.940;2023-04-03T03:39:21;-1.70;93.60
9271;DHT22;4673;53.458;9.940;2023-04-03T03:41:46;-1.80;93.70
9271;DHT22;4673;53.458;9.940;2023-04-03T03:44:12;-1.80;93.80
9271;DHT22;4673;53.458;9.940;2023-04-03T03:46:38;-1.80;94.10
9271;DHT22;4673;53.458;9.940;2023-04-03T03:49:04;-1.80;94.20
9271;DHT22;4673;53.458;9.940;2023-04-03T03:51:29;-1.80;94.30
9271;DHT22;4673;53.458;9.940;2023-04-03T03:53:55;-1.80;94.30
9271;DHT22;4673;53.458;9.940;2023-04-03T03:56:21;-1.70;94.80
9271;DHT22;4673;53.458;9.940;2023-04-03T03:58:47;-1.70;95.00
9271;DHT22;4673;53.458;9.940;2023-04-03T04:01:13;-1.70;94.90
9271;DHT22;4673;53.458;9.940;2023-04-03T04:03:38;-1.70;94.90
9271;DHT22;4673;53.458;9.940;2023-04-03T04:06:04;-1.70;94.80
9271;DHT22;4673;53.458;9.940;2023-04-03T04:08:30;-1.60;95.10
9271;DHT22;4673;53.458;9.940;2023-04-03T04:10:56;-1.50;95.00
9271;DHT22;4673;53.458;9.940;2023-04-03T04:13:21;-1.60;94.80
9271;DHT22;4673;53.458;9.940;2023-04-03T04:15:47;-1.60;94.80
9271;DHT22;4673;53.458;9.940;2023-04-03T04:18:12;-1.60;94.70
9271;DHT22;4673;53.458;9.940;2023-04-03T04:20:38;-1.60;94.80
9271;DHT22;4673;53.458;9.940;2023-04-03T04:23:04;-1.70;94.60
9271;DHT22;4673;53.458;9.940;2023-04-03T04:25:29;-1.80;94.30
9271;DHT22;4673;53.458;9.940;2023-04-03T04:27:55;-1.90;94.40
9271;DHT22;4673;53.458;9.940;2023-04-03T04:30:20;-1.80;94.80
9271;DHT22;4673;53.458;9.940;2023-04-03T04:32:46;-1.90;94.80
9271;DHT22;4673;53.458;9.940;2023-04-03T04:35:12;-1.90;95.00
9271;DHT22;4673;53.458;9.940;2023-04-03T04:37:38;-1.90;95.10
9271;DHT22;4673;53.458;9.940;2023-04-03T04:40:03;-1.90;95.00
9271;DHT22;4673;53.458;9.940;2023-04-03T04:42:30;-1.90;95.10
9271;DHT22;4673;53.458;9.940;2023-04-03T04:44:55;-2.00;95.00
9271;DHT22;4673;53.458;9.940;2023-04-03T04:47:21;-2.00;95.20
9271;DHT22;4673;53.458;9.940;2023-04-03T04:49:46;-2.00;95.30
9271;DHT22;4673;53.458;9.940;2023-04-03T04:52:13;-2.00;95.50
9271;DHT22;4673;53.458;9.940;2023-04-03T04:54:38;-2.00;95.50
9271;DHT22;4673;53.458;9.940;2023-04-03T04:57:04;-2.00;95.80
9271;DHT22;4673;53.458;9.940;2023-04-03T04:59:30;-1.90;96.00
9271;DHT22;4673;53.458;9.940;2023-04-03T05:01:55;-1.90;96.00
9271;DHT22;4673;53.458;9.940;2023-04-03T05:04:21;-1.90;96.10
9271;DHT22;4673;53.458;9.940;2023-04-03T05:06:46;-1.80;96.20
9271;DHT22;4673;53.458;9.940;2023-04-03T05:09:12;-1.80;96.20
9271;DHT22;4673;53.458;9.940;2023-04-03T05:11:38;-1.70;96.40
9271;DHT22;4673;53.458;9.940;2023-04-03T05:14:03;-1.70;96.40
9271;DHT22;4673;53.458;9.940;2023-04-03T05:16:32;-1.70;96.30
9271;DHT22;4673;53.458;9.940;2023-04-03T05:18:58;-1.70;96.40
9271;DHT22;4673;53.458;9.940;2023-04-03T05:21:23;-1.60;96.70
9271;DHT22;4673;53.458;9.940;2023-04-03T05:23:51;-1.10;97.70
9271;DHT22;4673;53.458;9.940;2023-04-03T05:26:17;-0.50;98.80
9271;DHT22;4673;53.458;9.940;2023-04-03T05:28:43;0.20;99.10
9271;DHT22;4673;53.458;9.940;2023-04-03T05:31:09;0.60;98.80
9271;DHT22;4673;53.458;9.940;2023-04-03T05:33:34;1.20;98.40
9271;DHT22;4673;53.458;9.940;2023-04-03T05:36:04;1.80;97.90
9271;DHT22;4673;53.458;9.940;2023-04-03T05:38:30;2.40;96.50
9271;DHT22;4673;53.458;9.940;2023-04-03T05:40:55;3.00;93.90
9271;DHT22;4673;53.458;9.940;2023-04-03T05:43:21;3.50;90.60
9271;DHT22;4673;53.458;9.940;2023-04-03T05:45:47;3.90;87.30
9271;DHT22;4673;53.458;9.940;2023-04-03T05:48:13;4.40;84.30
9271;DHT22;4673;53.458;9.940;2023-04-03T05:50:39;4.80;81.70
9271;DHT22;4673;53.458;9.940;2023-04-03T05:53:07;5.20;79.00
9271;DHT22;4673;53.458;9.940;2023-04-03T05:55:37;5.60;76.50
9271;DHT22;4673;53.458;9.940;2023-04-03T05:58:03;5.50;71.20
9271;DHT22;4673;53.458;9.940;2023-04-03T06:00:28;5.50;71.40
9271;DHT22;4673;53.458;9.940;2023-04-03T06:02:54;5.50;69.90
9271;DHT22;4673;53.458;9.940;2023-04-03T06:05:20;5.30;70.00
9271;DHT22;4673;53.458;9.940;2023-04-03T06:07:45;5.30;68.70
9271;DHT22;4673;53.458;9.940;2023-04-03T06:10:12;5.20;67.70
9271;DHT22;4673;53.458;9.940;2023-04-03T06:12:38;5.10;67.10
9271;DHT22;4673;53.458;9.940;2023-04-03T06:15:04;4.90;67.00
9271;DHT22;4673;53.458;9.940;2023-04-03T06:17:30;4.90;67.30
9271;DHT22;4673;53.458;9.940;2023-04-03T06:19:55;5.00;66.70
9271;DHT22;4673;53.458;9.940;2023-04-03T06:22:23;5.00;65.10
9271;DHT22;4673;53.458;9.940;2023-04-03T06:24:51;4.60;64.10
9271;DHT22;4673;53.458;9.940;2023-04-03T06:27:16;4.00;62.80
9271;DHT22;4673;53.458;9.940;2023-04-03T06:29:42;3.80;65.80
9271;DHT22;4673;53.458;9.940;2023-04-03T06:32:08;3.80;66.00
9271;DHT22;4673;53.458;9.940;2023-04-03T06:34:34;3.90;65.90
9271;DHT22;4673;53.458;9.940;2023-04-03T06:37:00;3.90;65.30
9271;DHT22;4673;53.458;9.940;2023-04-03T06:39:26;3.90;65.50
9271;DHT22;4673;53.458;9.940;2023-04-03T06:41:52;3.90;65.70
9271;DHT22;4673;53.458;9.940;2023-04-03T06:44:18;3.90;64.80
9271;DHT22;4673;53.458;9.940;2023-04-03T06:46:44;3.90;65.40
9271;DHT22;4673;53.458;9.940;2023-04-03T06:49:11;3.70;65.00
9271;DHT22;4673;53.458;9.940;2023-04-03T06:51:38;3.60;64.30
9271;DHT22;4673;53.458;9.940;2023-04-03T06:54:04;3.40;65.50
9271;DHT22;4673;53.458;9.940;2023-04-03T06:56:31;3.50;66.10
9271;DHT22;4673;53.458;9.940;2023-04-03T06:58:57;3.80;66.20
9271;DHT22;4673;53.458;9.940;2023-04-03T07:01:25;3.90;64.80
9271;DHT22;4673;53.458;9.940;2023-04-03T07:03:52;3.90;64.60
9271;DHT22;4673;53.458;9.940;2023-04-03T07:06:20;3.90;64.20
9271;DHT22;4673;53.458;9.940;2023-04-03T07:08:46;3.90;64.70
9271;DHT22;4673;53.458;9.940;2023-04-03T07:11:14;4.20;64.10
9271;DHT22;4673;53.458;9.940;2023-04-03T07:13:40;4.10;64.00
9271;DHT22;4673;53.458;9.940;2023-04-03T07:16:10;4.30;64.20
9271;DHT22;4673;53.458;9.940;2023-04-03T07:18:36;4.60;63.70
9271;DHT22;4673;53.458;9.940;2023-04-03T07:21:03;5.00;62.10
9271;DHT22;4673;53.458;9.940;2023-04-03T07:23:28;5.10;61.10
9271;DHT22;4673;53.458;9.940;2023-04-03T07:25:54;5.20;59.10
9271;DHT22;4673;53.458;9.940;2023-04-03T07:28:21;5.10;59.20
9271;DHT22;4673;53.458;9.940;2023-04-03T07:31:10;5.30;59.40
9271;DHT22;4673;53.458;9.940;2023-04-03T07:33:39;5.20;59.20
9271;DHT22;4673;53.458;9.940;2023-04-03T07:36:06;5.20;59.10
9271;DHT22;4673;53.458;9.940;2023-04-03T07:38:33;5.20;59.50
9271;DHT22;4673;53.458;9.940;2023-04-03T07:40:59;5.30;59.40
9271;DHT22;4673;53.458;9.940;2023-04-03T07:43:24;5.50;58.60
9271;DHT22;4673;53.458;9.940;2023-04-03T07:45:50;5.80;57.00
9271;DHT22;4673;53.458;9.940;2023-04-03T07:48:23;6.10;56.60
9271;DHT22;4673;53.458;9.940;2023-04-03T07:50:49;6.00;53.80
9271;DHT22;4673;53.458;9.940;2023-04-03T07:53:15;6.10;54.00
9271;DHT22;4673;53.458;9.940;2023-04-03T07:55:41;6.10;53.40
9271;DHT22;4673;53.458;9.940;2023-04-03T07:58:11;6.00;53.10
9271;DHT22;4673;53.458;9.940;2023-04-03T08:00:37;5.80;52.60
9271;DHT22;4673;53.458;9.940;2023-04-03T08:03:04;5.40;54.10
9271;DHT22;4673;53.458;9.940;2023-04-03T08:05:30;5.30;54.60
9271;DHT22;4673;53.458;9.940;2023-04-03T08:07:56;5.20;54.30
9271;DHT22;4673;53.458;9.940;2023-04-03T08:10:21;5.10;54.50
9271;DHT22;4673;53.458;9.940;2023-04-03T08:12:47;5.10;54.60
9271;DHT22;4673;53.458;9.940;2023-04-03T08:15:13;5.00;54.60
9271;DHT22;4673;53.458;9.940;2023-04-03T08:17:39;5.00;54.80
9271;DHT22;4673;53.458;9.940;2023-04-03T08:20:06;5.00;54.40
9271;DHT22;4673;53.458;9.940;2023-04-03T08:22:34;5.00;54.40
9271;DHT22;4673;53.458;9.940;2023-04-03T08:24:59;4.90;54.40
9271;DHT22;4673;53.458;9.940;2023-04-03T08:27:27;4.90;55.00
9271;DHT22;4673;53.458;9.940;2023-04-03T08:29:52;4.90;54.40
9271;DHT22;4673;53.458;9.940;2023-04-03T08:32:18;4.90;55.00
9271;DHT22;4673;53.458;9.940;2023-04-03T08:34:44;4.90;55.00
9271;DHT22;4673;53.458;9.940;2023-04-03T08:37:10;4.90;54.90
9271;DHT22;4673;53.458;9.940;2023-04-03T08:39:36;4.90;55.10
9271;DHT22;4673;53.458;9.940;2023-04-03T08:42:07;5.00;54.40
9271;DHT22;4673;53.458;9.940;2023-04-03T08:47:28;5.00;54.10
9271;DHT22;4673;53.458;9.940;2023-04-03T08:50:07;5.10;54.10
9271;DHT22;4673;53.458;9.940;2023-04-03T08:52:48;5.10;51.10
9271;DHT22;4673;53.458;9.940;2023-04-03T08:57:44;5.10;49.30
9271;DHT22;4673;53.458;9.940;2023-04-03T09:00:22;5.30;49.80
9271;DHT22;4673;53.458;9.940;2023-04-03T09:02:53;5.30;48.70
9271;DHT22;4673;53.458;9.940;2023-04-03T09:05:48;5.30;49.30
9271;DHT22;4673;53.458;9.940;2023-04-03T09:10:49;5.20;48.20
9271;DHT22;4673;53.458;9.940;2023-04-03T09:13:29;5.30;47.50
9271;DHT22;4673;53.458;9.940;2023-04-03T09:15:56;5.40;46.40
9271;DHT22;4673;53.458;9.940;2023-04-03T09:18:30;5.50;46.00
9271;DHT22;4673;53.458;9.940;2023-04-03T09:21:13;5.60;46.40
9271;DHT22;4673;53.458;9.940;2023-04-03T09:23:45;5.70;45.00
9271;DHT22;4673;53.458;9.940;2023-04-03T09:26:19;5.70;45.20
9271;DHT22;4673;53.458;9.940;2023-04-03T09:28:46;5.90;46.90
9271;DHT22;4673;53.458;9.940;2023-04-03T09:31:19;6.00;42.80
9271;DHT22;4673;53.458;9.940;2023-04-03T09:33:49;5.90;41.00
9271;DHT22;4673;53.458;9.940;2023-04-03T09:36:37;5.90;40.20
9271;DHT22;4673;53.458;9.940;2023-04-03T09:39:04;5.70;39.50
9271;DHT22;4673;53.458;9.940;2023-04-03T09:41:31;5.60;41.20
9271;DHT22;4673;53.458;9.940;2023-04-03T09:43:58;5.40;40.20
9271;DHT22;4673;53.458;9.940;2023-04-03T09:46:32;5.60;39.60
9271;DHT22;4673;53.458;9.940;2023-04-03T09:49:03;5.70;39.60
9271;DHT22;4673;53.458;9.940;2023-04-03T09:51:30;5.80;38.60
9271;DHT22;4673;53.458;9.940;2023-04-03T09:53:57;5.70;39.50
9271;DHT22;4673;53.458;9.940;2023-04-03T09:56:24;5.80;37.80
9271;DHT22;4673;53.458;9.940;2023-04-03T10:04:24;5.90;32.20
9271;DHT22;4673;53.458;9.940;2023-04-03T10:06:55;5.80;32.40
9271;DHT22;4673;53.458;9.940;2023-04-03T10:09:24;5.80;32.60
9271;DHT22;4673;53.458;9.940;2023-04-03T10:12:10;5.90;33.00
9271;DHT22;4673;53.458;9.940;2023-04-03T10:14:53;6.10;32.20
9271;DHT22;4673;53.458;9.940;2023-04-03T10:28:03;6.70;29.30
9271;DHT22;4673;53.458;9.940;2023-04-03T10:33:36;6.70;26.70
9271;DHT22;4673;53.458;9.940;2023-04-03T10:39:09;6.60;26.20
9271;DHT22;4673;53.458;9.940;2023-04-03T10:47:11;6.40;26.50
9271;DHT22;4673;53.458;9.940;2023-04-03T10:49:50;6.40;26.80
9271;DHT22;4673;53.458;9.940;2023-04-03T10:52:37;6.40;26.10
9271;DHT22;4673;53.458;9.940;2023-04-03T10:55:25;6.40;27.10
9271;DHT22;4673;53.458;9.940;2023-04-03T10:57:58;6.70;27.30
9271;DHT22;4673;53.458;9.940;2023-04-03T11:00:42;6.70;25.80
9271;DHT22;4673;53.458;9.940;2023-04-03T11:03:50;6.90;25.80
9271;DHT22;4673;53.458;9.940;2023-04-03T11:06:16;6.90;25.70
9271;DHT22;4673;53.458;9.940;2023-04-03T11:08:51;7.00;25.80
9271;DHT22;4673;53.458;9.940;2023-04-03T11:11:40;7.10;27.00
9271;DHT22;4673;53.458;9.940;2023-04-03T11:16:40;7.50;25.20
9271;DHT22;4673;53.458;9.940;2023-04-03T11:19:16;7.50;24.70
9271;DHT22;4673;53.458;9.940;2023-04-03T11:21:54;7.60;25.10
9271;DHT22;4673;53.458;9.940;2023-04-03T11:24:25;7.50;21.60
9271;DHT22;4673;53.458;9.940;2023-04-03T11:26:54;7.20;23.00
9271;DHT22;4673;53.458;9.940;2023-04-03T11:29:24;7.30;25.10
9271;DHT22;4673;53.458;9.940;2023-04-03T11:34:49;7.90;24.00
9271;DHT22;4673;53.458;9.940;2023-04-03T11:39:59;8.30;23.90
9271;DHT22;4673;53.458;9.940;2023-04-03T11:47:49;8.60;23.10
9271;DHT22;4673;53.458;9.940;2023-04-03T11:53:02;8.40;23.10
9271;DHT22;4673;53.458;9.940;2023-04-03T12:16:32;8.90;23.00
9271;DHT22;4673;53.458;9.940;2023-04-03T12:27:01;7.90;24.30
9271;DHT22;4673;53.458;9.940;2023-04-03T12:48:48;8.30;25.30
9271;DHT22;4673;53.458;9.940;2023-04-03T12:51:22;8.50;22.60
9271;DHT22;4673;53.458;9.940;2023-04-03T12:53:54;8.30;23.50
9271;DHT22;4673;53.458;9.940;2023-04-03T12:56:28;8.50;24.10
9271;DHT22;4673;53.458;9.940;2023-04-03T12:59:15;8.10;25.00
9271;DHT22;4673;53.458;9.940;2023-04-03T13:01:42;7.50;26.90
9271;DHT22;4673;53.458;9.940;2023-04-03T13:04:10;7.40;27.20
9271;DHT22;4673;53.458;9.940;2023-04-03T13:06:43;7.20;27.80
9271;DHT22;4673;53.458;9.940;2023-04-03T13:09:23;7.10;28.00
9271;DHT22;4673;53.458;9.940;2023-04-03T13:11:54;6.90;28.30
9271;DHT22;4673;53.458;9.940;2023-04-03T13:14:24;6.90;28.90
9271;DHT22;4673;53.458;9.940;2023-04-03T13:16:55;7.10;26.90
9271;DHT22;4673;53.458;9.940;2023-04-03T13:19:24;7.40;26.00
9271;DHT22;4673;53.458;9.940;2023-04-03T13:21:55;7.40;24.50
9271;DHT22;4673;53.458;9.940;2023-04-03T13:24:24;7.30;24.90
9271;DHT22;4673;53.458;9.940;2023-04-03T13:26:51;7.50;25.10
9271;DHT22;4673;53.458;9.940;2023-04-03T13:29:25;7.70;25.50
9271;DHT22;4673;53.458;9.940;2023-04-03T13:31:54;7.70;25.60
9271;DHT22;4673;53.458;9.940;2023-04-03T13:34:23;8.00;25.50
9271;DHT22;4673;53.458;9.940;2023-04-03T13:36:58;8.00;25.20
9271;DHT22;4673;53.458;9.940;2023-04-03T13:39:34;8.00;24.40
9271;DHT22;4673;53.458;9.940;2023-04-03T13:42:14;8.00;25.70
9271;DHT22;4673;53.458;9.940;2023-04-03T13:44:43;8.10;24.30
9271;DHT22;4673;53.458;9.940;2023-04-03T13:52:34;7.90;23.70
9271;DHT22;4673;53.458;9.940;2023-04-03T13:55:19;7.90;23.50
9271;DHT22;4673;53.458;9.940;2023-04-03T13:57:52;7.90;23.10
9271;DHT22;4673;53.458;9.940;2023-04-03T14:00:50;7.90;22.90
9271;DHT22;4673;53.458;9.940;2023-04-03T14:03:30;7.90;23.00
9271;DHT22;4673;53.458;9.940;2023-04-03T14:05:56;7.90;23.60
9271;DHT22;4673;53.458;9.940;2023-04-03T14:08:23;8.00;23.40
9271;DHT22;4673;53.458;9.940;2023-04-03T14:10:49;7.60;23.10
9271;DHT22;4673;53.458;9.940;2023-04-03T14:13:18;7.40;24.10
9271;DHT22;4673;53.458;9.940;2023-04-03T14:15:44;7.30;24.00
9271;DHT22;4673;53.458;9.940;2023-04-03T14:18:13;7.30;24.00
9271;DHT22;4673;53.458;9.940;2023-04-03T14:20:39;7.40;23.60
9271;DHT22;4673;53.458;9.940;2023-04-03T14:23:05;7.50;23.40
9271;DHT22;4673;53.458;9.940;2023-04-03T14:25:31;7.60;22.70
9271;DHT22;4673;53.458;9.940;2023-04-03T14:27:58;7.50;23.10
9271;DHT22;4673;53.458;9.940;2023-04-03T14:30:33;7.40;21.80
9271;DHT22;4673;53.458;9.940;2023-04-03T14:33:00;7.40;22.90
9271;DHT22;4673;53.458;9.940;2023-04-03T14:35:27;7.50;22.40
9271;DHT22;4673;53.458;9.940;2023-04-03T14:37:53;7.50;21.40
9271;DHT22;4673;53.458;9.940;2023-04-03T14:40:23;7.50;21.60
9271;DHT22;4673;53.458;9.940;2023-04-03T14:42:49;7.50;20.50
9271;DHT22;4673;53.458;9.940;2023-04-03T14:45:15;7.40;21.80
9271;DHT22;4673;53.458;9.940;2023-04-03T14:47:49;7.40;22.10
9271;DHT22;4673;53.458;9.940;2023-04-03T14:50:19;7.40;21.60
9271;DHT22;4673;53.458;9.940;2023-04-03T14:52:47;7.40;21.80
9271;DHT22;4673;53.458;9.940;2023-04-03T14:55:15;7.30;22.10
9271;DHT22;4673;53.458;9.940;2023-04-03T14:57:42;7.30;22.10
9271;DHT22;4673;53.458;9.940;2023-04-03T15:00:13;7.30;21.10
9271;DHT22;4673;53.458;9.940;2023-04-03T15:02:39;7.30;20.90
9271;DHT22;4673;53.458;9.940;2023-04-03T15:05:07;7.20;20.50
9271;DHT22;4673;53.458;9.940;2023-04-03T15:07:46;7.20;20.80
9271;DHT22;4673;53.458;9.940;2023-04-03T15:10:19;7.20;20.50
9271;DHT22;4673;53.458;9.940;2023-04-03T15:12:46;7.30;20.50
9271;DHT22;4673;53.458;9.940;2023-04-03T15:15:13;7.10;21.00
9271;DHT22;4673;53.458;9.940;2023-04-03T15:17:39;7.00;19.90
9271;DHT22;4673;53.458;9.940;2023-04-03T15:20:15;6.90;20.70
9271;DHT22;4673;53.458;9.940;2023-04-03T15:22:41;6.90;21.10
9271;DHT22;4673;53.458;9.940;2023-04-03T15:25:08;6.90;21.60
9271;DHT22;4673;53.458;9.940;2023-04-03T15:27:34;6.90;21.40
9271;DHT22;4673;53.458;9.940;2023-04-03T15:29:59;6.80;21.60
9271;DHT22;4673;53.458;9.940;2023-04-03T15:32:25;6.80;21.80
9271;DHT22;4673;53.458;9.940;2023-04-03T15:34:51;6.70;21.70
9271;DHT22;4673;53.458;9.940;2023-04-03T15:37:17;6.70;22.30
9271;DHT22;4673;53.458;9.940;2023-04-03T15:39:43;6.70;22.60
9271;DHT22;4673;53.458;9.940;2023-04-03T15:42:09;6.70;22.80
9271;DHT22;4673;53.458;9.940;2023-04-03T15:44:34;6.70;22.80
9271;DHT22;4673;53.458;9.940;2023-04-03T15:47:01;6.70;23.00
9271;DHT22;4673;53.458;9.940;2023-04-03T15:49:27;6.70;23.50
9271;DHT22;4673;53.458;9.940;2023-04-03T15:51:53;6.70;23.60
9271;DHT22;4673;53.458;9.940;2023-04-03T15:54:21;6.70;24.20
9271;DHT22;4673;53.458;9.940;2023-04-03T15:56:49;6.70;24.40
9271;DHT22;4673;53.458;9.940;2023-04-03T15:59:15;6.60;24.70
9271;DHT22;4673;53.458;9.940;2023-04-03T16:01:40;6.50;25.50
9271;DHT22;4673;53.458;9.940;2023-04-03T16:04:08;6.40;25.10
9271;DHT22;4673;53.458;9.940;2023-04-03T16:06:34;6.40;25.20
9271;DHT22;4673;53.458;9.940;2023-04-03T16:09:00;6.30;25.80
9271;DHT22;4673;53.458;9.940;2023-04-03T16:11:26;6.20;26.60
9271;DHT22;4673;53.458;9.940;2023-04-03T16:13:53;6.30;26.60
9271;DHT22;4673;53.458;9.940;2023-04-03T16:16:19;6.30;27.10
9271;DHT22;4673;53.458;9.940;2023-04-03T16:18:45;6.20;27.50
9271;DHT22;4673;53.458;9.940;2023-04-03T16:21:13;6.20;27.70
9271;DHT22;4673;53.458;9.940;2023-04-03T16:23:40;6.10;27.20
9271;DHT22;4673;53.458;9.940;2023-04-03T16:26:06;6.10;27.70
9271;DHT22;4673;53.458;9.940;2023-04-03T16:28:32;6.00;27.70
9271;DHT22;4673;53.458;9.940;2023-04-03T16:30:59;6.00;28.20
9271;DHT22;4673;53.458;9.940;2023-04-03T16:33:26;5.90;27.70
9271;DHT22;4673;53.458;9.940;2023-04-03T16:35:52;5.90;28.20
9271;DHT22;4673;53.458;9.940;2023-04-03T16:38:18;5.90;28.20
9271;DHT22;4673;53.458;9.940;2023-04-03T16:40:45;5.90;28.40
9271;DHT22;4673;53.458;9.940;2023-04-03T16:43:11;5.80;29.10
9271;DHT22;4673;53.458;9.940;2023-04-03T16:45:37;5.70;29.50
9271;DHT22;4673;53.458;9.940;2023-04-03T16:48:03;5.70;29.70
9271;DHT22;4673;53.458;9.940;2023-04-03T16:50:29;5.60;30.70
9271;DHT22;4673;53.458;9.940;2023-04-03T16:52:55;5.60;31.30
9271;DHT22;4673;53.458;9.940;2023-04-03T16:55:20;5.50;31.60
9271;DHT22;4673;53.458;9.940;2023-04-03T16:57:46;5.60;31.90
9271;DHT22;4673;53.458;9.940;2023-04-03T17:00:12;5.50;32.60
9271;DHT22;4673;53.458;9.940;2023-04-03T17:02:39;5.50;32.80
9271;DHT22;4673;53.458;9.940;2023-04-03T17:05:05;5.40;33.20
9271;DHT22;4673;53.458;9.940;2023-04-03T17:07:31;5.30;33.50
9271;DHT22;4673;53.458;9.940;2023-04-03T17:09:57;5.30;33.70
9271;DHT22;4673;53.458;9.940;2023-04-03T17:12:23;5.20;33.70
9271;DHT22;4673;53.458;9.940;2023-04-03T17:14:49;5.20;33.50
9271;DHT22;4673;53.458;9.940;2023-04-03T17:17:15;5.10;33.70
9271;DHT22;4673;53.458;9.940;2023-04-03T17:19:43;5.10;34.20
9271;DHT22;4673;53.458;9.940;2023-04-03T17:22:09;5.00;35.40
9271;DHT22;4673;53.458;9.940;2023-04-03T17:24:35;5.00;37.10
9271;DHT22;4673;53.458;9.940;2023-04-03T17:27:01;4.90;38.30
9271;DHT22;4673;53.458;9.940;2023-04-03T17:29:27;4.90;39.50
9271;DHT22;4673;53.458;9.940;2023-04-03T17:31:53;4.80;40.30
9271;DHT22;4673;53.458;9.940;2023-04-03T17:34:18;4.70;40.90
9271;DHT22;4673;53.458;9.940;2023-04-03T17:36:44;4.70;41.30
9271;DHT22;4673;53.458;9.940;2023-04-03T17:39:10;4.50;41.70
9271;DHT22;4673;53.458;9.940;2023-04-03T17:41:36;4.50;42.10
9271;DHT22;4673;53.458;9.940;2023-04-03T17:44:02;4.40;42.60
9271;DHT22;4673;53.458;9.940;2023-04-03T17:46:28;4.40;43.50
9271;DHT22;4673;53.458;9.940;2023-04-03T17:48:54;4.30;43.90
9271;DHT22;4673;53.458;9.940;2023-04-03T17:51:22;4.20;44.30
9271;DHT22;4673;53.458;9.940;2023-04-03T17:53:48;4.10;44.50
9271;DHT22;4673;53.458;9.940;2023-04-03T17:56:17;4.10;44.80
9271;DHT22;4673;53.458;9.940;2023-04-03T17:58:43;4.10;44.50
9271;DHT22;4673;53.458;9.940;2023-04-03T18:01:16;4.00;44.70
9271;DHT22;4673;53.458;9.940;2023-04-03T18:03:43;3.90;44.70
9271;DHT22;4673;53.458;9.940;2023-04-03T18:06:12;3.80;44.40
9271;DHT22;4673;53.458;9.940;2023-04-03T18:08:54;3.80;44.50
9271;DHT22;4673;53.458;9.940;2023-04-03T18:11:24;3.70;44.20
9271;DHT22;4673;53.458;9.940;2023-04-03T18:13:52;3.60;44.50
9271;DHT22;4673;53.458;9.940;2023-04-03T18:16:18;3.50;44.80
9271;DHT22;4673;53.458;9.940;2023-04-03T18:18:44;3.50;45.00